Time;durP1;ratioP1;P1;durP2;ratioP2;P2;SDS_P1;SDS_P2;PMS_P1;PMS_P2;Temp;Humidity;BMP_temperature;BMP_pressure;BME280_temperature;BME280_humidity;BME280_pressure;Samples;Min_cycle;Max_cycle;Signal;HPM_P1;HPM_P2
2021/01/01 06:02:11;;;;;;;34.43;20.27;;;4.40;98.90;;;;;;5099449;23;20839;-78
2021/01/01 06:04:39;;;;;;;34.83;20.42;;;4.40;98.90;;;;;;4948872;29;20376;-78
2021/01/01 06:07:07;;;;;;;38.80;23.65;;;4.40;98.90;;;;;;4960622;29;20134;-79
2021/01/01 06:09:35;;;;;;;40.95;24.25;;;4.40;98.70;;;;;;4967642;29;20563;-79
2021/01/01 06:12:11;;;;;;;40.38;24.25;;;4.40;98.70;;;;;;4967299;29;20075;-78
2021/01/01 06:14:40;;;;;;;39.42;23.48;;;4.40;98.80;;;;;;4970299;29;20047;-79
2021/01/01 06:17:21;;;;;;;34.78;21.27;;;4.40;98.80;;;;;;4966038;29;20086;-79
2021/01/01 06:19:51;;;;;;;38.55;22.13;;;4.40;98.90;;;;;;4966388;28;20043;-79
2021/01/01 06:22:20;;;;;;;36.47;20.60;;;4.40;98.80;;;;;;4950546;29;20059;-79
2021/01/01 06:24:51;;;;;;;33.97;21.00;;;4.50;99.10;;;;;;4953185;29;20485;-79
2021/01/01 06:27:19;;;;;;;34.67;19.33;;;4.50;98.70;;;;;;4949624;29;20087;-79
2021/01/01 06:29:50;;;;;;;31.40;18.95;;;4.50;98.70;;;;;;4954535;29;20067;-79
2021/01/01 06:32:21;;;;;;;34.15;19.98;;;4.50;98.70;;;;;;4947045;29;20158;-79
2021/01/01 06:34:49;;;;;;;34.70;19.17;;;4.50;98.80;;;;;;4948975;29;20051;-79
2021/01/01 06:37:36;;;;;;;29.25;17.02;;;4.50;98.80;;;;;;4955905;29;20118;-79
2021/01/01 06:40:06;;;;;;;37.53;22.65;;;4.40;98.90;;;;;;4951527;29;20425;-79
2021/01/01 06:42:54;;;;;;;40.05;24.02;;;4.40;99.00;;;;;;4932396;29;20126;-79
2021/01/01 06:45:40;;;;;;;39.72;23.02;;;4.30;99.10;;;;;;4962569;29;20481;-79
2021/01/01 06:48:13;;;;;;;37.38;21.33;;;4.30;99.20;;;;;;4947473;29;20075;-79
2021/01/01 06:50:41;;;;;;;36.97;20.55;;;4.40;99.20;;;;;;4931833;29;20069;-78
2021/01/01 06:53:10;;;;;;;33.78;19.50;;;4.30;99.20;;;;;;4909770;29;20143;-78
2021/01/01 06:55:39;;;;;;;37.08;20.73;;;4.30;99.10;;;;;;4921731;29;20115;-78
2021/01/01 06:58:08;;;;;;;37.08;21.23;;;4.40;99.20;;;;;;4935735;29;20091;-79
2021/01/01 07:00:56;;;;;;;33.53;19.30;;;4.40;99.20;;;;;;4931756;29;20063;-78
2021/01/01 07:03:35;;;;;;;29.02;17.42;;;4.40;99.20;;;;;;4961590;29;20047;-79
2021/01/01 07:06:38;;;;;;;30.35;18.67;;;4.50;99.50;;;;;;4952999;29;20067;-78
2021/01/01 07:09:06;;;;;;;32.72;20.20;;;4.50;99.30;;;;;;4948560;29;20067;-78
2021/01/01 07:11:40;;;;;;;33.05;19.23;;;4.50;99.10;;;;;;4962098;29;20070;-80
2021/01/01 07:14:21;;;;;;;33.70;20.58;;;4.50;99.00;;;;;;4954362;29;20039;-78
2021/01/01 07:16:54;;;;;;;35.97;21.02;;;4.50;99.00;;;;;;4947522;29;20035;-77
2021/01/01 07:19:21;;;;;;;39.42;22.55;;;4.50;99.10;;;;;;4928573;29;20899;-78
2021/01/01 07:21:48;;;;;;;35.75;21.77;;;4.50;99.10;;;;;;4948309;29;20059;-78
2021/01/01 07:24:15;;;;;;;32.45;18.88;;;4.60;99.10;;;;;;4948614;29;20047;-78
2021/01/01 07:26:41;;;;;;;38.13;21.30;;;4.60;99.10;;;;;;4955845;29;20051;-78
2021/01/01 07:29:08;;;;;;;35.88;21.42;;;4.60;99.00;;;;;;4936138;29;20051;-78
2021/01/01 07:31:35;;;;;;;34.97;21.50;;;4.60;98.80;;;;;;4963224;28;20075;-78
2021/01/01 07:34:11;;;;;;;33.58;19.65;;;4.60;99.00;;;;;;4953997;29;20094;-79
2021/01/01 07:36:39;;;;;;;34.28;20.45;;;4.60;98.90;;;;;;4963908;29;20067;-79
2021/01/01 07:39:07;;;;;;;34.97;20.52;;;4.60;99.00;;;;;;4957352;29;20071;-79
2021/01/01 07:41:35;;;;;;;38.80;21.35;;;4.50;99.00;;;;;;4949165;29;20058;-78
2021/01/01 07:44:02;;;;;;;36.35;20.98;;;4.40;99.00;;;;;;4946968;29;20055;-78
2021/01/01 07:46:31;;;;;;;34.92;21.42;;;4.40;99.20;;;;;;4960093;29;20082;-79
2021/01/01 07:48:59;;;;;;;40.70;22.58;;;4.40;99.20;;;;;;4961451;29;20103;-79
2021/01/01 07:54:17;;;;;;;38.97;23.75;;;4.40;99.30;;;;;;5772349;23;20022;31
2021/01/01 08:19:40;;;;;;;44.97;27.57;;;4.10;99.50;;;;;;5653626;23;20283;-82
2021/01/01 08:22:10;;;;;;;46.10;25.77;;;4.00;99.60;;;;;;4991498;23;20058;-80
2021/01/01 08:24:42;;;;;;;44.60;25.98;;;4.00;99.60;;;;;;4979281;28;20058;-80
2021/01/01 08:27:10;;;;;;;43.33;24.90;;;4.00;99.60;;;;;;5176251;23;20078;-81
2021/01/01 08:32:12;;;;;;;40.95;23.10;;;3.90;99.60;;;;;;5338957;23;20039;-84
2021/01/01 09:45:22;;;;;;;20.98;12.43;;;4.60;98.50;;;;;;5437113;23;20057;-84
2021/01/01 10:13:46;;;;;;;17.42;10.15;;;4.70;98.30;;;;;;739213;26;20314;-81
2021/01/01 10:34:22;;;;;;;10.00;5.43;;;4.90;97.50;;;;;;5284885;23;20105;-79
2021/01/01 10:36:56;;;;;;;9.45;5.45;;;5.00;97.30;;;;;;4936327;29;20099;-83
2021/01/01 10:39:22;;;;;;;11.02;6.45;;;5.10;97.30;;;;;;4914907;29;20123;-80
2021/01/01 10:41:51;;;;;;;9.43;5.88;;;5.00;97.40;;;;;;4886247;29;20057;-80
2021/01/01 10:44:23;;;;;;;10.05;5.65;;;5.00;97.50;;;;;;4893119;29;20049;-82
2021/01/01 10:46:56;;;;;;;9.15;5.43;;;4.90;97.50;;;;;;4901124;29;20049;-83
2021/01/01 10:52:01;;;;;;;10.27;6.13;;;5.00;97.50;;;;;;5013674;23;20044;-82
2021/01/01 10:54:31;;;;;;;9.60;5.28;;;4.90;97.50;;;;;;4978360;28;20074;-84
2021/01/01 10:56:58;;;;;;;10.10;5.93;;;5.20;97.60;;;;;;4979331;28;20031;-83
2021/01/01 10:59:26;;;;;;;9.55;5.70;;;5.00;97.50;;;;;;4978343;28;20031;-82
2021/01/01 12:38:37;;;;;;;8.25;4.30;;;5.60;95.40;;;;;;5379761;23;20052;-82
2021/01/01 12:41:07;;;;;;;7.70;3.88;;;5.70;94.90;;;;;;4941934;29;20478;-82
2021/01/01 12:43:34;;;;;;;7.35;4.10;;;5.60;95.30;;;;;;4940028;29;20564;-83
2021/01/01 12:46:01;;;;;;;7.30;4.18;;;5.70;95.30;;;;;;4942968;28;20040;-83
2021/01/01 12:48:28;;;;;;;8.32;4.60;;;5.70;95.40;;;;;;4942910;28;20040;-82
2021/01/01 12:50:57;;;;;;;6.85;4.10;;;5.70;95.10;;;;;;5042307;23;20052;-83
2021/01/01 13:42:38;;;;;;;7.53;4.40;;;5.60;93.50;;;;;;4658274;23;20051;-80
2021/01/01 13:45:18;;;;;;;7.28;4.32;;;5.60;93.50;;;;;;4961905;28;20031;-80
2021/01/01 13:50:21;;;;;;;7.80;4.32;;;5.50;94.20;;;;;;5256277;23;20048;-83
2021/01/01 13:52:48;;;;;;;8.68;4.47;;;5.60;94.70;;;;;;4940872;29;20036;-85
2021/01/01 14:55:46;;;;;;;8.27;4.00;;;5.70;95.60;;;;;;5100667;23;20047;-82
2021/01/01 14:58:13;;;;;;;7.28;4.00;;;5.70;95.20;;;;;;4960185;28;20039;-83
2021/01/01 15:00:40;;;;;;;10.75;5.57;;;5.70;95.00;;;;;;4960273;28;20055;-83
2021/01/01 15:03:07;;;;;;;10.10;5.55;;;5.70;95.00;;;;;;4957563;28;20124;-81
2021/01/01 15:05:41;;;;;;;8.88;4.80;;;5.60;95.20;;;;;;4960349;28;20043;-85
2021/01/01 15:08:15;;;;;;;8.90;4.63;;;5.70;95.30;;;;;;4959973;28;20052;-85
2021/01/01 15:10:42;;;;;;;7.15;4.00;;;5.90;95.20;;;;;;4960058;28;20028;-84
2021/01/01 15:13:14;;;;;;;7.90;4.50;;;5.60;95.10;;;;;;4960591;28;20048;-83
2021/01/01 15:15:42;;;;;;;8.07;4.30;;;5.60;95.10;;;;;;4944526;29;20047;-84
2021/01/01 15:18:10;;;;;;;8.02;4.00;;;5.70;95.10;;;;;;4948036;28;20028;-84
2021/01/01 15:20:40;;;;;;;7.45;4.13;;;5.70;95.10;;;;;;4948124;29;20039;-84
2021/01/01 15:23:11;;;;;;;8.68;4.43;;;5.70;95.30;;;;;;4947535;29;20028;-84
2021/01/01 15:25:43;;;;;;;7.57;4.25;;;5.70;95.40;;;;;;4947624;28;20035;-83
2021/01/01 15:28:11;;;;;;;8.60;4.63;;;5.50;95.20;;;;;;4947655;28;20064;-83
2021/01/01 15:30:38;;;;;;;8.70;4.78;;;5.50;95.00;;;;;;4965428;28;20035;-84
2021/01/01 15:33:05;;;;;;;8.75;4.80;;;5.50;95.20;;;;;;4965759;28;20040;-82
2021/01/01 15:35:32;;;;;;;7.57;4.18;;;5.40;95.60;;;;;;4930078;29;20138;-82
2021/01/01 15:38:00;;;;;;;7.32;4.20;;;5.40;95.70;;;;;;4964866;28;20048;-82
2021/01/01 15:40:28;;;;;;;6.90;4.10;;;5.40;95.80;;;;;;4955993;29;20059;-83
2021/01/01 15:42:55;;;;;;;8.35;4.57;;;5.50;95.80;;;;;;4960106;29;20086;-82
2021/01/01 15:45:23;;;;;;;7.78;4.05;;;5.40;95.80;;;;;;4950028;29;20501;-83
2021/01/01 15:47:50;;;;;;;6.32;3.50;;;5.40;95.70;;;;;;4962297;29;20082;-82
2021/01/01 15:50:17;;;;;;;7.47;3.90;;;5.30;95.80;;;;;;4956751;29;20063;-82
2021/01/01 15:52:43;;;;;;;7.28;4.10;;;5.40;95.90;;;;;;4935257;29;20079;-82
2021/01/01 15:55:11;;;;;;;8.85;4.30;;;5.40;96.20;;;;;;4951476;29;20082;-82
2021/01/01 15:57:38;;;;;;;7.68;4.05;;;5.30;95.90;;;;;;4958303;29;20047;-81
2021/01/01 16:00:07;;;;;;;7.03;3.60;;;5.30;95.90;;;;;;4932284;29;20064;-81
2021/01/01 16:02:34;;;;;;;7.13;3.55;;;5.30;96.00;;;;;;4955131;29;20079;-81
2021/01/01 16:05:01;;;;;;;6.25;3.38;;;5.20;95.70;;;;;;4949473;29;20079;-81
2021/01/01 16:07:29;;;;;;;7.45;4.15;;;5.20;95.80;;;;;;4952757;29;20083;-80
2021/01/01 16:09:56;;;;;;;7.25;3.97;;;5.30;96.10;;;;;;4962173;29;20162;-79
2021/01/01 16:12:23;;;;;;;7.18;3.75;;;5.20;96.00;;;;;;4942363;29;20058;-82
2021/01/01 16:14:49;;;;;;;7.75;3.92;;;5.10;96.10;;;;;;4963186;28;20138;-83
2021/01/01 16:17:17;;;;;;;6.60;3.63;;;5.00;96.20;;;;;;4950079;28;20059;-82
2021/01/01 16:19:45;;;;;;;7.65;3.80;;;5.00;96.40;;;;;;4942550;29;20051;-81
2021/01/01 16:22:12;;;;;;;7.60;3.85;;;4.90;96.50;;;;;;4940974;29;20150;-82
2021/01/01 16:24:38;;;;;;;6.00;3.50;;;4.90;96.50;;;;;;4941633;29;20147;-81
2021/01/01 16:27:06;;;;;;;6.40;3.60;;;4.90;96.70;;;;;;4941400;29;20047;-80
2021/01/01 16:29:33;;;;;;;7.18;3.80;;;4.90;96.90;;;;;;4958425;29;20055;-82
2021/01/01 16:32:00;;;;;;;6.93;3.75;;;4.70;96.70;;;;;;4949274;29;20051;-81
2021/01/01 16:34:27;;;;;;;7.57;4.05;;;4.70;96.80;;;;;;4959662;28;20625;-83
2021/01/01 16:36:57;;;;;;;8.90;4.82;;;4.60;96.90;;;;;;5174148;23;20039;-83
2021/01/01 16:39:25;;;;;;;18.85;13.40;;;4.60;97.10;;;;;;4945273;29;20433;-83
2021/01/01 16:41:54;;;;;;;17.25;11.57;;;4.50;97.10;;;;;;4970037;28;20035;-81
2021/01/01 16:44:21;;;;;;;11.07;7.20;;;4.60;97.20;;;;;;4968438;28;20047;-82
2021/01/01 16:46:49;;;;;;;11.40;6.40;;;4.60;97.20;;;;;;4970104;28;20055;-83
2021/01/01 16:49:19;;;;;;;11.00;6.13;;;4.40;97.10;;;;;;4954537;29;20050;-82
2021/01/01 16:51:49;;;;;;;50.78;24.35;;;4.40;97.10;;;;;;4958695;29;20134;-82
2021/01/01 16:54:20;;;;;;;53.67;26.48;;;4.50;97.10;;;;;;4967658;28;20504;-81
2021/01/01 16:56:50;;;;;;;29.95;15.75;;;4.40;97.10;;;;;;4974780;28;20054;-82
2021/01/01 16:59:20;;;;;;;23.33;13.82;;;4.40;97.00;;;;;;4977438;28;20473;-82
2021/01/01 17:01:50;;;;;;;29.80;20.23;;;4.40;96.90;;;;;;4975006;28;20070;-82
2021/01/01 17:04:22;;;;;;;17.85;11.65;;;4.40;96.90;;;;;;4976726;28;20052;-83
2021/01/01 17:09:26;;;;;;;9.65;5.65;;;4.30;97.00;;;;;;5567232;23;20039;-83
2021/01/01 17:11:55;;;;;;;9.23;5.70;;;4.20;97.00;;;;;;4960422;29;20055;-83
2021/01/01 17:14:23;;;;;;;16.45;11.00;;;4.20;97.00;;;;;;4975784;29;20078;-83
2021/01/01 17:16:51;;;;;;;17.00;11.23;;;4.10;96.80;;;;;;4975102;28;20055;-82
2021/01/01 17:19:28;;;;;;;14.13;8.20;;;4.00;96.80;;;;;;4975874;29;20066;-83
2021/01/01 17:21:59;;;;;;;14.63;9.00;;;3.80;96.90;;;;;;4968223;28;20047;-82
2021/01/01 17:24:27;;;;;;;11.32;6.68;;;3.90;97.10;;;;;;4971476;28;20055;-82
2021/01/01 17:27:00;;;;;;;11.90;6.63;;;3.80;97.10;;;;;;4977697;29;20051;-83
2021/01/01 17:29:28;;;;;;;11.15;6.05;;;3.70;97.30;;;;;;4968629;28;20038;-83
2021/01/01 17:31:55;;;;;;;9.20;5.45;;;3.60;97.30;;;;;;4982616;28;20041;-84
2021/01/01 17:34:24;;;;;;;10.25;5.80;;;3.50;97.30;;;;;;5000296;28;20037;-83
2021/01/01 17:36:51;;;;;;;12.18;5.88;;;3.50;97.40;;;;;;4984002;28;20058;-83
2021/01/01 17:41:52;;;;;;;11.05;6.10;;;3.40;97.60;;;;;;4995733;28;20049;-82
2021/01/01 17:44:18;;;;;;;9.93;6.32;;;3.30;97.70;;;;;;4980148;28;20061;-83
2021/01/01 17:46:45;;;;;;;10.90;6.45;;;3.30;97.80;;;;;;4991930;28;20054;-82
2021/01/01 17:49:13;;;;;;;10.25;5.63;;;3.20;97.70;;;;;;4994830;28;20054;-82
2021/01/01 17:51:40;;;;;;;10.82;6.28;;;3.30;97.40;;;;;;4980773;28;20050;-82
2021/01/01 17:54:08;;;;;;;10.73;5.72;;;3.30;97.40;;;;;;4995192;28;20046;-81
2021/01/01 17:56:38;;;;;;;11.05;6.07;;;3.20;97.40;;;;;;4993979;28;20054;-82
2021/01/01 17:59:06;;;;;;;9.45;5.95;;;3.20;97.50;;;;;;4995601;28;20047;-82
2021/01/01 18:01:33;;;;;;;10.25;6.15;;;3.30;97.50;;;;;;4963190;28;20038;-82
2021/01/01 18:04:08;;;;;;;10.60;5.95;;;3.40;97.60;;;;;;4994539;28;20051;-82
2021/01/01 18:06:39;;;;;;;12.88;7.43;;;3.50;97.80;;;;;;4996744;28;20055;-83
2021/01/01 18:09:06;;;;;;;11.65;7.00;;;3.30;97.50;;;;;;4997868;28;20070;-83
2021/01/01 18:11:37;;;;;;;10.75;6.50;;;3.20;97.30;;;;;;4982568;28;20065;-84
2021/01/01 18:14:07;;;;;;;10.35;6.53;;;3.40;97.10;;;;;;4997300;28;20055;-82
2021/01/01 18:16:36;;;;;;;11.63;6.72;;;3.20;97.10;;;;;;4998570;28;20090;-82
2021/01/01 18:19:03;;;;;;;12.07;7.03;;;3.20;97.00;;;;;;4997814;28;20046;-81
2021/01/01 18:21:32;;;;;;;12.95;6.80;;;3.20;97.20;;;;;;4981479;28;20134;-79
2021/01/01 18:23:58;;;;;;;10.55;6.50;;;3.10;97.60;;;;;;4983631;28;20080;-79
2021/01/01 18:31:40;;;;;;;10.10;6.38;;;3.10;97.80;;;;;;4755280;26;20047;-81
2021/01/01 18:34:12;;;;;;;12.75;6.90;;;3.10;97.70;;;;;;4953693;28;20080;-82
2021/01/01 18:36:50;;;;;;;11.80;7.18;;;3.30;97.60;;;;;;4941187;29;20048;-82
2021/01/01 18:39:17;;;;;;;14.07;7.15;;;3.20;97.50;;;;;;4932266;29;20055;-81
2021/01/01 18:41:58;;;;;;;11.30;6.88;;;3.20;97.30;;;;;;4946217;29;20048;-83
2021/01/01 18:47:14;;;;;;;13.27;7.60;;;3.20;97.30;;;;;;4823712;23;20059;-83
2021/01/01 18:49:46;;;;;;;12.63;6.55;;;3.30;97.20;;;;;;4981617;28;20062;-83
2021/01/01 18:52:19;;;;;;;11.57;6.57;;;3.10;96.90;;;;;;4991006;28;20035;-83
2021/01/01 18:54:56;;;;;;;11.52;7.05;;;3.10;97.00;;;;;;5008447;28;20082;-83
2021/01/01 19:03:20;;;;;;;12.00;6.70;;;3.00;97.20;;;;;;5237326;23;20063;-81
2021/01/01 19:06:29;;;;;;;12.15;6.95;;;3.00;97.20;;;;;;4995167;28;20059;-82
2021/01/01 19:11:50;;;;;;;11.43;6.78;;;2.80;97.30;;;;;;5057316;23;20046;-79
2021/01/01 19:14:18;;;;;;;13.60;6.60;;;3.00;97.30;;;;;;4961926;28;20062;-82
2021/01/01 19:16:51;;;;;;;13.15;7.10;;;3.00;97.40;;;;;;4992685;28;20051;-81
2021/01/01 19:19:22;;;;;;;13.95;7.28;;;3.00;97.10;;;;;;4986486;28;20058;-80
2021/01/01 19:21:53;;;;;;;11.77;7.28;;;2.90;97.30;;;;;;4980906;28;20820;-80
2021/01/01 19:24:35;;;;;;;12.57;7.65;;;2.90;97.40;;;;;;4983748;28;20070;-80
2021/01/01 19:27:10;;;;;;;14.18;7.20;;;2.90;97.30;;;;;;4991464;28;20054;-80
2021/01/01 19:29:40;;;;;;;12.70;8.00;;;2.90;97.50;;;;;;4984007;28;20093;-80
2021/01/01 19:32:12;;;;;;;11.77;7.07;;;2.90;97.60;;;;;;4999845;28;20058;-80
2021/01/01 21:21:48;;;;;;;15.43;9.73;;;2.40;97.90;;;;;;5240475;23;20050;-81
2021/01/01 21:28:36;;;;;;;24.98;13.65;;;2.20;98.90;;;;;;5049936;23;20063;-82
2021/01/01 21:31:55;;;;;;;26.23;12.52;;;2.10;99.30;;;;;;4948525;28;20138;-79
2021/01/01 21:35:19;;;;;;;26.17;14.02;;;2.10;99.30;;;;;;4965578;28;20033;-82
2021/01/01 21:38:50;;;;;;;26.17;14.73;;;2.10;99.60;;;;;;4962930;28;20086;-82
2021/01/01 21:41:35;;;;;;;25.70;14.23;;;2.20;99.70;;;;;;4980447;28;20569;-82
2021/01/01 21:44:54;;;;;;;28.17;14.95;;;2.20;99.60;;;;;;4982499;28;20110;-82
2021/01/01 21:47:54;;;;;;;27.13;15.27;;;2.30;99.50;;;;;;4988807;28;20087;-81
2021/01/01 21:50:24;;;;;;;27.58;15.15;;;2.50;99.30;;;;;;4985526;28;20141;-82
2021/01/01 21:52:54;;;;;;;26.48;14.32;;;2.40;99.00;;;;;;4966354;28;20047;-82
2021/01/01 21:55:21;;;;;;;30.42;14.73;;;2.50;98.90;;;;;;4972657;28;20119;-81
2021/01/01 21:57:48;;;;;;;28.55;13.80;;;2.50;98.60;;;;;;4974104;28;20061;-81
2021/01/01 22:00:19;;;;;;;26.60;14.05;;;2.40;98.70;;;;;;4979128;28;20054;-81
2021/01/01 22:02:48;;;;;;;29.67;14.82;;;2.50;98.90;;;;;;4964958;28;20080;-81
2021/01/01 22:05:16;;;;;;;25.92;13.95;;;2.50;98.90;;;;;;4974697;28;20050;-82
2021/01/01 22:07:43;;;;;;;19.17;11.63;;;2.60;99.00;;;;;;4960938;28;20098;-81
2021/01/01 22:10:10;;;;;;;18.63;10.45;;;2.60;98.80;;;;;;4978433;28;20560;-82
2021/01/01 22:12:37;;;;;;;18.15;10.80;;;2.60;98.70;;;;;;4969046;28;20666;-80
2021/01/01 22:15:07;;;;;;;19.95;11.43;;;2.70;98.70;;;;;;4975277;28;20053;-80
2021/01/01 22:17:34;;;;;;;21.40;10.98;;;2.60;98.50;;;;;;4965073;28;20071;-81
2021/01/01 22:20:01;;;;;;;22.25;11.57;;;2.90;98.50;;;;;;4961210;28;20058;-81
2021/01/01 22:22:28;;;;;;;23.02;11.70;;;2.80;98.60;;;;;;4967105;28;20555;-81
2021/01/01 22:24:57;;;;;;;22.80;12.60;;;2.80;98.70;;;;;;4966292;28;20102;-82
2021/01/01 22:27:24;;;;;;;32.25;15.35;;;2.80;98.50;;;;;;4958321;28;20083;-81
2021/01/01 22:29:51;;;;;;;36.78;17.58;;;2.80;98.60;;;;;;4955455;28;20051;-81
2021/01/01 22:32:19;;;;;;;28.67;13.63;;;2.90;98.70;;;;;;4946297;28;20497;-82
2021/01/01 22:34:47;;;;;;;28.58;13.88;;;2.80;98.70;;;;;;4969834;28;20500;-82
2021/01/01 22:37:14;;;;;;;26.60;14.32;;;2.70;98.90;;;;;;4955568;28;20055;-82
2021/01/01 22:39:41;;;;;;;25.65;13.48;;;2.70;99.30;;;;;;4978889;28;20457;-82
2021/01/01 22:42:07;;;;;;;26.60;14.32;;;2.70;99.20;;;;;;4973049;28;20579;-81
2021/01/01 22:44:34;;;;;;;26.33;14.05;;;2.70;99.10;;;;;;4966303;28;20134;-81
2021/01/01 22:47:01;;;;;;;24.20;13.57;;;2.70;99.10;;;;;;4961224;28;20475;-81
2021/01/01 22:49:28;;;;;;;26.50;14.30;;;2.70;99.00;;;;;;4963289;28;20194;-81
2021/01/01 22:51:56;;;;;;;23.45;13.55;;;2.70;99.00;;;;;;4976002;28;20498;-81
2021/01/01 22:54:23;;;;;;;28.23;15.40;;;2.70;99.00;;;;;;4979438;28;20129;-81
2021/01/01 22:56:53;;;;;;;30.63;15.65;;;2.80;99.30;;;;;;4976130;28;20054;-81
2021/01/01 22:59:27;;;;;;;32.28;16.83;;;2.70;99.20;;;;;;4961194;28;20055;-81
2021/01/01 23:01:56;;;;;;;32.97;17.50;;;2.70;98.90;;;;;;4963541;28;20089;-81
2021/01/01 23:04:26;;;;;;;33.00;16.55;;;2.80;99.20;;;;;;4981554;28;20089;-81
2021/01/01 23:06:56;;;;;;;32.35;15.63;;;2.70;99.20;;;;;;4979277;28;20051;-81
2021/01/01 23:09:26;;;;;;;31.08;16.17;;;2.70;98.90;;;;;;4964378;28;20120;-82
2021/01/01 23:11:56;;;;;;;32.40;14.80;;;2.50;99.20;;;;;;4983708;28;20113;-81
2021/01/01 23:14:23;;;;;;;29.38;15.02;;;2.50;99.40;;;;;;4978287;28;20079;-82
2021/01/01 23:16:53;;;;;;;36.38;14.70;;;2.50;99.40;;;;;;4974438;28;20500;-82
2021/01/01 23:19:27;;;;;;;34.45;16.05;;;2.40;99.60;;;;;;4986632;28;20047;-82
2021/01/01 23:22:02;;;;;;;33.85;16.23;;;2.30;99.80;;;;;;4986803;28;20556;-81
2021/01/01 23:24:33;;;;;;;;;;;2.30;99.90;;;;;;4971565;28;20047;-80
2021/01/01 23:27:07;;;;;;;36.13;16.98;;;2.30;99.90;;;;;;4959910;29;19913;-81
2021/01/01 23:30:06;;;;;;;57.78;16.27;;;2.30;99.90;;;;;;4974038;28;20078;-81
2021/01/01 23:33:15;;;;;;;31.35;16.60;;;2.20;99.90;;;;;;4980788;28;20047;-81
2021/01/01 23:35:51;;;;;;;35.25;16.40;;;2.20;99.90;;;;;;4964433;28;20046;-81
2021/01/01 23:38:35;;;;;;;34.35;18.08;;;2.20;99.90;;;;;;4981476;28;20047;-81
2021/01/01 23:41:02;;;;;;;42.72;18.35;;;2.30;99.90;;;;;;4968028;29;20082;-80
2021/01/01 23:43:37;;;;;;;34.70;17.27;;;2.30;99.90;;;;;;4971791;28;20609;-81
2021/01/01 23:46:11;;;;;;;;;;;2.30;99.90;;;;;;4959661;28;20059;-81
2021/01/01 23:48:43;;;;;;;38.47;18.00;;;2.40;99.90;;;;;;4984878;28;19921;-81
2021/01/01 23:51:09;;;;;;;34.38;16.98;;;2.30;99.90;;;;;;4992491;28;20314;-81
2021/01/01 23:53:40;;;;;;;33.22;16.70;;;2.30;99.90;;;;;;4984926;28;20048;-80
2021/01/01 23:56:08;;;;;;;31.88;15.93;;;2.30;99.90;;;;;;4992790;28;20054;-80
2021/01/01 23:58:37;;;;;;;31.27;16.20;;;2.30;99.90;;;;;;4980718;28;20058;-81
